sensor_id;sensor_type;location;lat;lon;timestamp;pressure;altitude;pressure_sealevel;temperature;humidity
43281;BME280;62175;49.416;8.690;2023-02-28T00:00:13;101494.84;;;6.90;35.84
43281;BME280;62175;49.416;8.690;2023-02-28T00:02:41;101499.74;;;6.72;35.64
43281;BME280;62175;49.416;8.690;2023-02-28T00:05:11;101500.40;;;6.44;36.46
43281;BME280;62175;49.416;8.690;2023-02-28T00:07:40;101499.35;;;6.70;36.00
43281;BME280;62175;49.416;8.690;2023-02-28T00:10:12;101496.98;;;6.55;35.91
43281;BME280;62175;49.416;8.690;2023-02-28T00:12:41;101492.32;;;6.52;35.96
43281;BME280;62175;49.416;8.690;2023-02-28T00:15:14;101496.65;;;6.53;36.04
43281;BME280;62175;49.416;8.690;2023-02-28T00:18:50;101497.93;;;6.40;36.40
43281;BME280;62175;49.416;8.690;2023-02-28T00:21:21;101496.36;;;6.62;35.85
43281;BME280;62175;49.416;8.690;2023-02-28T00:23:49;101491.72;;;6.49;36.16
43281;BME280;62175;49.416;8.690;2023-02-28T00:26:17;101493.00;;;6.35;36.17
43281;BME280;62175;49.416;8.690;2023-02-28T00:28:48;101495.98;;;6.54;36.01
43281;BME280;62175;49.416;8.690;2023-02-28T00:31:16;101492.82;;;6.49;36.34
43281;BME280;62175;49.416;8.690;2023-02-28T00:33:47;101493.27;;;6.52;36.09
43281;BME280;62175;49.416;8.690;2023-02-28T00:36:20;101492.16;;;6.36;36.14
43281;BME280;62175;49.416;8.690;2023-02-28T00:38:48;101489.33;;;6.45;35.92
43281;BME280;62175;49.416;8.690;2023-02-28T00:41:20;101488.61;;;6.85;36.13
43281;BME280;62175;49.416;8.690;2023-02-28T00:43:51;101488.06;;;6.32;36.05
43281;BME280;62175;49.416;8.690;2023-02-28T00:46:22;101492.00;;;6.30;36.05
43281;BME280;62175;49.416;8.690;2023-02-28T00:48:50;101489.62;;;6.32;36.05
43281;BME280;62175;49.416;8.690;2023-02-28T00:51:21;101490.50;;;6.27;36.33
43281;BME280;62175;49.416;8.690;2023-02-28T00:53:51;101494.99;;;6.55;36.66
43281;BME280;62175;49.416;8.690;2023-02-28T00:56:22;101494.21;;;6.07;36.55
43281;BME280;62175;49.416;8.690;2023-02-28T00:58:55;101497.27;;;6.27;36.26
43281;BME280;62175;49.416;8.690;2023-02-28T01:01:24;101498.43;;;6.81;36.54
43281;BME280;62175;49.416;8.690;2023-02-28T01:03:53;101497.60;;;6.21;36.14
43281;BME280;62175;49.416;8.690;2023-02-28T01:06:24;101496.26;;;6.65;36.79
43281;BME280;62175;49.416;8.690;2023-02-28T01:12:16;101489.28;;;6.56;36.24
43281;BME280;62175;49.416;8.690;2023-02-28T01:14:56;101489.83;;;6.47;36.21
43281;BME280;62175;49.416;8.690;2023-02-28T01:17:40;101492.47;;;6.71;36.21
43281;BME280;62175;49.416;8.690;2023-02-28T01:20:10;101486.65;;;6.90;36.18
43281;BME280;62175;49.416;8.690;2023-02-28T01:22:44;101490.34;;;6.35;36.41
43281;BME280;62175;49.416;8.690;2023-02-28T01:25:13;101487.55;;;6.63;36.35
43281;BME280;62175;49.416;8.690;2023-02-28T01:27:42;101491.28;;;6.16;36.33
43281;BME280;62175;49.416;8.690;2023-02-28T01:30:13;101491.22;;;6.47;36.47
43281;BME280;62175;49.416;8.690;2023-02-28T01:32:43;101489.17;;;6.40;36.63
43281;BME280;62175;49.416;8.690;2023-02-28T01:35:12;101491.55;;;6.46;36.10
43281;BME280;62175;49.416;8.690;2023-02-28T01:37:42;101490.77;;;6.45;36.52
43281;BME280;62175;49.416;8.690;2023-02-28T01:40:12;101488.00;;;6.49;36.30
43281;BME280;62175;49.416;8.690;2023-02-28T01:42:40;101484.24;;;6.29;35.97
43281;BME280;62175;49.416;8.690;2023-02-28T01:45:20;101488.45;;;6.28;36.24
43281;BME280;62175;49.416;8.690;2023-02-28T01:47:52;101483.07;;;6.58;36.22
43281;BME280;62175;49.416;8.690;2023-02-28T01:50:24;101484.45;;;6.69;36.13
43281;BME280;62175;49.416;8.690;2023-02-28T01:52:57;101484.96;;;6.35;36.76
43281;BME280;62175;49.416;8.690;2023-02-28T01:55:32;101481.73;;;6.49;36.14
43281;BME280;62175;49.416;8.690;2023-02-28T01:58:03;101481.06;;;6.63;36.13
43281;BME280;62175;49.416;8.690;2023-02-28T02:00:32;101477.53;;;6.28;36.49
43281;BME280;62175;49.416;8.690;2023-02-28T02:03:09;101476.93;;;6.32;36.53
43281;BME280;62175;49.416;8.690;2023-02-28T02:05:40;101476.15;;;6.50;36.56
43281;BME280;62175;49.416;8.690;2023-02-28T02:08:10;101477.20;;;6.39;37.16
43281;BME280;62175;49.416;8.690;2023-02-28T02:10:42;101472.16;;;6.26;38.01
43281;BME280;62175;49.416;8.690;2023-02-28T02:13:24;101475.65;;;6.59;37.39
43281;BME280;62175;49.416;8.690;2023-02-28T02:16:04;101469.50;;;6.13;36.68
43281;BME280;62175;49.416;8.690;2023-02-28T02:18:40;101472.32;;;6.38;37.14
43281;BME280;62175;49.416;8.690;2023-02-28T02:21:32;101467.44;;;6.26;37.30
43281;BME280;62175;49.416;8.690;2023-02-28T02:24:33;101465.84;;;6.23;36.86
43281;BME280;62175;49.416;8.690;2023-02-28T02:29:59;101467.06;;;6.82;37.19
43281;BME280;62175;49.416;8.690;2023-02-28T02:34:52;101462.28;;;7.14;37.53
43281;BME280;62175;49.416;8.690;2023-02-28T02:37:29;101466.61;;;6.26;36.36
43281;BME280;62175;49.416;8.690;2023-02-28T02:40:09;101463.29;;;6.16;36.96
43281;BME280;62175;49.416;8.690;2023-02-28T02:42:48;101462.18;;;6.11;36.39
43281;BME280;62175;49.416;8.690;2023-02-28T02:45:21;101464.51;;;6.40;36.41
43281;BME280;62175;49.416;8.690;2023-02-28T02:47:52;101464.23;;;6.45;36.76
43281;BME280;62175;49.416;8.690;2023-02-28T02:50:33;101465.94;;;6.33;36.78
43281;BME280;62175;49.416;8.690;2023-02-28T02:55:19;101465.51;;;6.39;36.79
43281;BME280;62175;49.416;8.690;2023-02-28T02:57:50;101463.18;;;6.49;37.01
43281;BME280;62175;49.416;8.690;2023-02-28T03:00:24;101463.68;;;6.18;36.94
43281;BME280;62175;49.416;8.690;2023-02-28T03:02:55;101461.57;;;6.21;36.88
43281;BME280;62175;49.416;8.690;2023-02-28T03:05:34;101461.52;;;6.43;36.83
43281;BME280;62175;49.416;8.690;2023-02-28T03:08:04;101458.75;;;6.43;36.71
43281;BME280;62175;49.416;8.690;2023-02-28T03:10:35;101458.97;;;6.21;36.15
43281;BME280;62175;49.416;8.690;2023-02-28T03:13:15;101454.26;;;6.22;36.90
43281;BME280;62175;49.416;8.690;2023-02-28T03:16:01;101455.81;;;6.18;37.19
43281;BME280;62175;49.416;8.690;2023-02-28T03:18:38;101455.31;;;6.01;37.00
43281;BME280;62175;49.416;8.690;2023-02-28T03:21:14;101454.87;;;6.23;36.67
43281;BME280;62175;49.416;8.690;2023-02-28T03:23:56;101456.20;;;5.83;36.69
43281;BME280;62175;49.416;8.690;2023-02-28T03:26:27;101452.65;;;5.97;36.76
43281;BME280;62175;49.416;8.690;2023-02-28T03:29:03;101453.93;;;6.36;37.11
43281;BME280;62175;49.416;8.690;2023-02-28T03:31:35;101455.42;;;6.41;37.08
43281;BME280;62175;49.416;8.690;2023-02-28T03:34:08;101453.04;;;6.23;37.55
43281;BME280;62175;49.416;8.690;2023-02-28T03:36:38;101456.14;;;5.77;37.00
43281;BME280;62175;49.416;8.690;2023-02-28T03:39:14;101454.70;;;5.98;37.33
43281;BME280;62175;49.416;8.690;2023-02-28T03:41:47;101456.59;;;6.11;36.90
43281;BME280;62175;49.416;8.690;2023-02-28T03:44:21;101455.25;;;5.99;37.32
43281;BME280;62175;49.416;8.690;2023-02-28T03:46:56;101457.64;;;6.23;37.18
43281;BME280;62175;49.416;8.690;2023-02-28T03:49:27;101457.51;;;5.99;37.21
43281;BME280;62175;49.416;8.690;2023-02-28T03:51:58;101459.63;;;6.24;37.17
43281;BME280;62175;49.416;8.690;2023-02-28T03:54:32;101456.52;;;6.14;36.97
43281;BME280;62175;49.416;8.690;2023-02-28T03:57:05;101456.79;;;6.02;37.31
43281;BME280;62175;49.416;8.690;2023-02-28T03:59:37;101458.67;;;5.99;37.49
43281;BME280;62175;49.416;8.690;2023-02-28T04:02:07;101460.77;;;5.75;37.44
43281;BME280;62175;49.416;8.690;2023-02-28T04:04:35;101466.05;;;6.13;37.38
43281;BME280;62175;49.416;8.690;2023-02-28T04:07:07;101460.13;;;6.18;38.14
43281;BME280;62175;49.416;8.690;2023-02-28T04:09:34;101457.69;;;6.28;36.98
43281;BME280;62175;49.416;8.690;2023-02-28T04:12:02;101458.69;;;5.83;37.26
43281;BME280;62175;49.416;8.690;2023-02-28T04:14:29;101456.41;;;5.84;36.96
43281;BME280;62175;49.416;8.690;2023-02-28T04:16:57;101455.64;;;6.12;37.20
43281;BME280;62175;49.416;8.690;2023-02-28T04:19:25;101458.30;;;6.25;36.88
43281;BME280;62175;49.416;8.690;2023-02-28T04:21:53;101454.84;;;5.92;37.57
43281;BME280;62175;49.416;8.690;2023-02-28T04:24:23;101457.63;;;6.11;37.25
43281;BME280;62175;49.416;8.690;2023-02-28T04:26:53;101453.91;;;6.07;36.99
43281;BME280;62175;49.416;8.690;2023-02-28T04:29:26;101454.03;;;6.09;37.25
43281;BME280;62175;49.416;8.690;2023-02-28T04:31:57;101452.31;;;6.05;37.27
43281;BME280;62175;49.416;8.690;2023-02-28T04:34:27;101457.85;;;5.87;37.38
43281;BME280;62175;49.416;8.690;2023-02-28T04:36:56;101458.63;;;6.14;36.94
43281;BME280;62175;49.416;8.690;2023-02-28T04:39:25;101451.19;;;5.75;37.51
43281;BME280;62175;49.416;8.690;2023-02-28T04:41:53;101454.01;;;5.71;37.14
43281;BME280;62175;49.416;8.690;2023-02-28T04:44:21;101451.65;;;6.10;37.62
43281;BME280;62175;49.416;8.690;2023-02-28T04:46:51;101451.60;;;6.23;37.10
43281;BME280;62175;49.416;8.690;2023-02-28T04:49:20;101447.77;;;6.14;37.28
43281;BME280;62175;49.416;8.690;2023-02-28T04:51:49;101448.20;;;5.76;37.63
43281;BME280;62175;49.416;8.690;2023-02-28T04:54:19;101450.64;;;5.95;37.58
43281;BME280;62175;49.416;8.690;2023-02-28T04:56:48;101452.02;;;5.47;37.40
43281;BME280;62175;49.416;8.690;2023-02-28T04:59:21;101453.72;;;5.55;37.65
43281;BME280;62175;49.416;8.690;2023-02-28T05:01:50;101453.68;;;5.89;37.60
43281;BME280;62175;49.416;8.690;2023-02-28T05:04:19;101454.63;;;5.84;37.99
43281;BME280;62175;49.416;8.690;2023-02-28T05:06:46;101459.95;;;5.84;37.62
43281;BME280;62175;49.416;8.690;2023-02-28T05:09:13;101465.44;;;6.06;37.54
43281;BME280;62175;49.416;8.690;2023-02-28T05:11:41;101463.78;;;6.12;37.11
43281;BME280;62175;49.416;8.690;2023-02-28T05:14:11;101465.11;;;5.90;37.56
43281;BME280;62175;49.416;8.690;2023-02-28T05:16:40;101468.44;;;5.97;37.49
43281;BME280;62175;49.416;8.690;2023-02-28T05:19:07;101468.83;;;5.76;37.10
43281;BME280;62175;49.416;8.690;2023-02-28T05:21:36;101468.87;;;5.89;37.16
43281;BME280;62175;49.416;8.690;2023-02-28T05:24:06;101471.82;;;6.25;37.10
43281;BME280;62175;49.416;8.690;2023-02-28T05:26:35;101473.43;;;5.90;37.31
43281;BME280;62175;49.416;8.690;2023-02-28T05:29:05;101471.52;;;5.97;37.01
43281;BME280;62175;49.416;8.690;2023-02-28T05:31:33;101473.99;;;6.36;37.45
43281;BME280;62175;49.416;8.690;2023-02-28T05:34:04;101473.41;;;6.08;38.28
43281;BME280;62175;49.416;8.690;2023-02-28T05:36:32;101472.31;;;5.95;37.28
43281;BME280;62175;49.416;8.690;2023-02-28T05:39:00;101469.16;;;5.97;37.21
43281;BME280;62175;49.416;8.690;2023-02-28T05:41:32;101471.55;;;6.10;37.27
43281;BME280;62175;49.416;8.690;2023-02-28T05:44:01;101467.50;;;6.08;37.13
43281;BME280;62175;49.416;8.690;2023-02-28T05:46:29;101475.00;;;5.70;36.88
43281;BME280;62175;49.416;8.690;2023-02-28T05:48:57;101475.17;;;5.91;37.41
43281;BME280;62175;49.416;8.690;2023-02-28T05:51:28;101477.34;;;5.98;37.92
43281;BME280;62175;49.416;8.690;2023-02-28T05:53:59;101485.53;;;5.98;37.29
43281;BME280;62175;49.416;8.690;2023-02-28T05:56:27;101478.69;;;5.51;37.07
43281;BME280;62175;49.416;8.690;2023-02-28T05:58:54;101480.29;;;5.51;37.50
43281;BME280;62175;49.416;8.690;2023-02-28T06:01:31;101477.93;;;5.85;37.58
43281;BME280;62175;49.416;8.690;2023-02-28T06:04:00;101476.14;;;5.74;37.56
43281;BME280;62175;49.416;8.690;2023-02-28T06:06:29;101474.49;;;5.83;37.34
43281;BME280;62175;49.416;8.690;2023-02-28T06:08:57;101476.73;;;6.03;37.28
43281;BME280;62175;49.416;8.690;2023-02-28T06:11:26;101479.70;;;5.81;37.41
43281;BME280;62175;49.416;8.690;2023-02-28T06:13:55;101482.64;;;5.88;37.48
43281;BME280;62175;49.416;8.690;2023-02-28T06:16:23;101491.15;;;5.77;37.24
43281;BME280;62175;49.416;8.690;2023-02-28T06:18:51;101492.46;;;5.80;37.37
43281;BME280;62175;49.416;8.690;2023-02-28T06:21:19;101490.00;;;5.61;37.62
43281;BME280;62175;49.416;8.690;2023-02-28T06:23:47;101492.73;;;5.72;37.04
43281;BME280;62175;49.416;8.690;2023-02-28T06:26:15;101488.42;;;6.01;37.18
43281;BME280;62175;49.416;8.690;2023-02-28T06:28:42;101489.64;;;5.69;37.34
43281;BME280;62175;49.416;8.690;2023-02-28T06:31:10;101489.28;;;5.85;37.88
43281;BME280;62175;49.416;8.690;2023-02-28T06:33:39;101494.15;;;5.82;37.25
43281;BME280;62175;49.416;8.690;2023-02-28T06:36:08;101500.39;;;5.46;37.30
43281;BME280;62175;49.416;8.690;2023-02-28T06:38:36;101502.89;;;5.76;37.60
43281;BME280;62175;49.416;8.690;2023-02-28T06:41:07;101502.91;;;5.85;37.65
43281;BME280;62175;49.416;8.690;2023-02-28T06:43:40;101504.61;;;5.76;37.11
43281;BME280;62175;49.416;8.690;2023-02-28T06:46:13;101505.54;;;5.81;37.58
43281;BME280;62175;49.416;8.690;2023-02-28T06:48:44;101505.62;;;6.33;37.17
43281;BME280;62175;49.416;8.690;2023-02-28T06:51:16;101507.85;;;5.97;37.42
43281;BME280;62175;49.416;8.690;2023-02-28T06:53:44;101503.82;;;6.04;36.54
43281;BME280;62175;49.416;8.690;2023-02-28T06:56:14;101509.04;;;6.15;37.12
43281;BME280;62175;49.416;8.690;2023-02-28T06:58:45;101508.00;;;5.62;37.35
43281;BME280;62175;49.416;8.690;2023-02-28T07:01:13;101504.22;;;6.14;37.24
43281;BME280;62175;49.416;8.690;2023-02-28T07:03:41;101508.25;;;6.05;36.67
43281;BME280;62175;49.416;8.690;2023-02-28T07:06:09;101508.03;;;5.83;37.10
43281;BME280;62175;49.416;8.690;2023-02-28T07:08:37;101512.40;;;5.98;37.02
43281;BME280;62175;49.416;8.690;2023-02-28T07:11:04;101514.79;;;5.81;36.91
43281;BME280;62175;49.416;8.690;2023-02-28T07:13:32;101521.04;;;5.78;37.52
43281;BME280;62175;49.416;8.690;2023-02-28T07:16:00;101523.10;;;6.07;37.31
43281;BME280;62175;49.416;8.690;2023-02-28T07:18:27;101520.52;;;6.23;37.45
43281;BME280;62175;49.416;8.690;2023-02-28T07:20:55;101533.35;;;5.88;37.59
43281;BME280;62175;49.416;8.690;2023-02-28T07:23:23;101530.05;;;5.88;37.23
43281;BME280;62175;49.416;8.690;2023-02-28T07:25:56;101540.73;;;6.16;37.25
43281;BME280;62175;49.416;8.690;2023-02-28T07:28:24;101537.02;;;6.19;38.72
43281;BME280;62175;49.416;8.690;2023-02-28T07:30:52;101537.93;;;5.74;37.32
43281;BME280;62175;49.416;8.690;2023-02-28T07:33:21;101535.98;;;5.69;37.24
43281;BME280;62175;49.416;8.690;2023-02-28T07:35:49;101539.38;;;6.21;37.24
43281;BME280;62175;49.416;8.690;2023-02-28T07:38:34;101533.31;;;6.18;38.12
43281;BME280;62175;49.416;8.690;2023-02-28T07:41:02;101528.00;;;5.85;37.46
43281;BME280;62175;49.416;8.690;2023-02-28T07:43:29;101528.80;;;6.11;37.26
43281;BME280;62175;49.416;8.690;2023-02-28T07:46:01;101528.53;;;6.57;36.94
43281;BME280;62175;49.416;8.690;2023-02-28T07:48:30;101526.37;;;6.31;37.82
43281;BME280;62175;49.416;8.690;2023-02-28T07:50:59;101532.02;;;6.56;37.21
43281;BME280;62175;49.416;8.690;2023-02-28T07:53:28;101535.18;;;6.34;36.67
43281;BME280;62175;49.416;8.690;2023-02-28T07:55:56;101537.16;;;6.16;36.92
43281;BME280;62175;49.416;8.690;2023-02-28T07:58:24;101538.99;;;5.94;36.95
43281;BME280;62175;49.416;8.690;2023-02-28T08:00:52;101541.79;;;6.02;36.64
43281;BME280;62175;49.416;8.690;2023-02-28T08:03:21;101546.48;;;6.14;37.29
43281;BME280;62175;49.416;8.690;2023-02-28T08:05:50;101543.50;;;6.31;37.82
43281;BME280;62175;49.416;8.690;2023-02-28T08:08:19;101547.24;;;5.97;37.58
43281;BME280;62175;49.416;8.690;2023-02-28T08:27:56;101535.84;;;6.02;36.92
43281;BME280;62175;49.416;8.690;2023-02-28T08:40:27;101534.08;;;6.88;36.63
43281;BME280;62175;49.416;8.690;2023-02-28T08:51:48;101527.70;;;7.07;36.94
43281;BME280;62175;49.416;8.690;2023-02-28T08:54:17;101528.26;;;6.39;36.93
43281;BME280;62175;49.416;8.690;2023-02-28T08:56:46;101526.42;;;6.50;36.42
43281;BME280;62175;49.416;8.690;2023-02-28T08:59:14;101521.21;;;6.63;36.79
43281;BME280;62175;49.416;8.690;2023-02-28T09:01:42;101524.36;;;6.72;36.35
43281;BME280;62175;49.416;8.690;2023-02-28T09:04:13;101531.13;;;6.76;36.34
43281;BME280;62175;49.416;8.690;2023-02-28T09:06:41;101526.46;;;6.82;37.07
43281;BME280;62175;49.416;8.690;2023-02-28T09:09:08;101530.06;;;6.90;36.18
43281;BME280;62175;49.416;8.690;2023-02-28T09:11:38;101539.88;;;7.08;35.90
43281;BME280;62175;49.416;8.690;2023-02-28T09:14:05;101530.94;;;6.74;36.25
43281;BME280;62175;49.416;8.690;2023-02-28T09:16:34;101531.46;;;6.77;36.07
43281;BME280;62175;49.416;8.690;2023-02-28T09:20:25;101531.46;;;6.80;35.95
43281;BME280;62175;49.416;8.690;2023-02-28T09:26:42;101534.07;;;7.69;36.10
43281;BME280;62175;49.416;8.690;2023-02-28T09:29:09;101528.41;;;7.22;36.03
43281;BME280;62175;49.416;8.690;2023-02-28T09:31:37;101533.16;;;6.69;35.30
43281;BME280;62175;49.416;8.690;2023-02-28T09:34:04;101532.95;;;6.85;35.19
43281;BME280;62175;49.416;8.690;2023-02-28T09:36:32;101527.44;;;7.25;35.59
43281;BME280;62175;49.416;8.690;2023-02-28T09:39:00;101529.25;;;6.61;35.36
43281;BME280;62175;49.416;8.690;2023-02-28T09:41:36;101521.36;;;6.86;35.39
43281;BME280;62175;49.416;8.690;2023-02-28T09:44:07;101511.15;;;6.90;35.52
43281;BME280;62175;49.416;8.690;2023-02-28T09:46:42;101514.23;;;6.77;35.07
43281;BME280;62175;49.416;8.690;2023-02-28T09:49:17;101513.20;;;7.23;36.19
43281;BME280;62175;49.416;8.690;2023-02-28T09:51:53;101514.57;;;6.84;35.75
43281;BME280;62175;49.416;8.690;2023-02-28T09:54:28;101500.57;;;7.39;34.73
43281;BME280;62175;49.416;8.690;2023-02-28T09:57:00;101529.16;;;6.77;34.38
43281;BME280;62175;49.416;8.690;2023-02-28T09:59:38;101529.27;;;7.39;35.21
43281;BME280;62175;49.416;8.690;2023-02-28T10:02:19;101524.29;;;7.30;35.03
43281;BME280;62175;49.416;8.690;2023-02-28T10:04:52;101522.05;;;7.41;35.62
43281;BME280;62175;49.416;8.690;2023-02-28T10:07:35;101527.36;;;7.22;35.91
43281;BME280;62175;49.416;8.690;2023-02-28T10:10:15;101527.49;;;7.38;35.60
43281;BME280;62175;49.416;8.690;2023-02-28T10:12:45;101521.41;;;7.49;35.27
43281;BME280;62175;49.416;8.690;2023-02-28T10:15:16;101518.64;;;7.24;35.48
43281;BME280;62175;49.416;8.690;2023-02-28T10:17:53;101527.70;;;7.23;35.23
43281;BME280;62175;49.416;8.690;2023-02-28T10:20:25;101529.56;;;7.30;34.96
43281;BME280;62175;49.416;8.690;2023-02-28T10:22:59;101522.44;;;7.85;34.95
43281;BME280;62175;49.416;8.690;2023-02-28T10:25:29;101525.28;;;7.32;35.16
43281;BME280;62175;49.416;8.690;2023-02-28T10:28:04;101525.35;;;7.26;34.59
43281;BME280;62175;49.416;8.690;2023-02-28T10:30:32;101522.51;;;7.59;34.79
43281;BME280;62175;49.416;8.690;2023-02-28T10:33:01;101515.57;;;7.49;33.54
43281;BME280;62175;49.416;8.690;2023-02-28T10:35:28;101517.16;;;7.84;34.49
43281;BME280;62175;49.416;8.690;2023-02-28T10:37:57;101520.02;;;7.47;34.68
43281;BME280;62175;49.416;8.690;2023-02-28T10:40:31;101515.42;;;7.44;34.38
43281;BME280;62175;49.416;8.690;2023-02-28T10:43:02;101516.80;;;7.62;36.08
43281;BME280;62175;49.416;8.690;2023-02-28T10:45:30;101519.38;;;7.86;35.91
43281;BME280;62175;49.416;8.690;2023-02-28T10:48:05;101514.73;;;8.01;34.69
43281;BME280;62175;49.416;8.690;2023-02-28T10:50:39;101512.80;;;7.63;34.88
43281;BME280;62175;49.416;8.690;2023-02-28T10:53:28;101513.03;;;7.89;34.36
43281;BME280;62175;49.416;8.690;2023-02-28T10:55:58;101507.69;;;7.77;36.05
43281;BME280;62175;49.416;8.690;2023-02-28T10:58:28;101512.81;;;7.90;34.12
43281;BME280;62175;49.416;8.690;2023-02-28T11:00:57;101509.29;;;7.93;34.49
43281;BME280;62175;49.416;8.690;2023-02-28T11:03:30;101509.43;;;7.87;34.58
43281;BME280;62175;49.416;8.690;2023-02-28T11:05:57;101504.88;;;7.86;35.82
43281;BME280;62175;49.416;8.690;2023-02-28T11:08:26;101496.98;;;8.00;35.04
43281;BME280;62175;49.416;8.690;2023-02-28T11:15:23;101513.51;;;8.43;34.76
43281;BME280;62175;49.416;8.690;2023-02-28T11:17:55;101499.68;;;7.54;34.45
43281;BME280;62175;49.416;8.690;2023-02-28T11:20:26;101494.57;;;8.05;35.60
43281;BME280;62175;49.416;8.690;2023-02-28T11:28:29;101492.15;;;8.57;35.23
43281;BME280;62175;49.416;8.690;2023-02-28T11:31:05;101486.81;;;7.85;34.21
43281;BME280;62175;49.416;8.690;2023-02-28T11:33:41;101490.88;;;8.43;35.24
43281;BME280;62175;49.416;8.690;2023-02-28T11:36:13;101495.09;;;8.25;34.77
43281;BME280;62175;49.416;8.690;2023-02-28T11:38:44;101489.63;;;8.00;34.16
43281;BME280;62175;49.416;8.690;2023-02-28T11:41:28;101487.47;;;8.09;34.61
43281;BME280;62175;49.416;8.690;2023-02-28T11:44:09;101480.97;;;8.09;34.86
43281;BME280;62175;49.416;8.690;2023-02-28T11:49:01;101471.20;;;8.82;34.72
43281;BME280;62175;49.416;8.690;2023-02-28T11:51:34;101478.69;;;8.64;34.92
43281;BME280;62175;49.416;8.690;2023-02-28T11:58:35;101478.61;;;9.18;35.23
43281;BME280;62175;49.416;8.690;2023-02-28T12:04:47;101470.95;;;9.51;34.02
43281;BME280;62175;49.416;8.690;2023-02-28T12:07:27;101474.71;;;8.64;34.82
43281;BME280;62175;49.416;8.690;2023-02-28T12:10:20;101470.04;;;8.71;34.03
43281;BME280;62175;49.416;8.690;2023-02-28T12:13:01;101477.95;;;8.63;34.79
43281;BME280;62175;49.416;8.690;2023-02-28T12:24:25;101470.52;;;8.57;34.69
43281;BME280;62175;49.416;8.690;2023-02-28T12:27:00;101473.89;;;8.23;35.82
43281;BME280;62175;49.416;8.690;2023-02-28T12:58:17;101467.90;;;8.75;36.35
43281;BME280;62175;49.416;8.690;2023-02-28T13:01:05;101462.45;;;8.30;35.50
43281;BME280;62175;49.416;8.690;2023-02-28T13:03:58;101452.07;;;8.70;33.91
43281;BME280;62175;49.416;8.690;2023-02-28T13:06:52;101461.05;;;8.57;34.27
43281;BME280;62175;49.416;8.690;2023-02-28T13:09:27;101454.84;;;8.49;35.21
43281;BME280;62175;49.416;8.690;2023-02-28T13:11:56;101452.05;;;8.96;35.21
43281;BME280;62175;49.416;8.690;2023-02-28T13:14:28;101458.39;;;8.81;34.51
43281;BME280;62175;49.416;8.690;2023-02-28T13:17:17;101454.59;;;8.76;35.12
43281;BME280;62175;49.416;8.690;2023-02-28T23:03:15;101518.38;;;6.90;36.48
43281;BME280;62175;49.416;8.690;2023-02-28T23:06:22;101524.19;;;7.43;36.46
43281;BME280;62175;49.416;8.690;2023-02-28T23:09:05;101525.24;;;7.46;36.40
43281;BME280;62175;49.416;8.690;2023-02-28T23:11:38;101529.47;;;7.24;36.00
43281;BME280;62175;49.416;8.690;2023-02-28T23:14:13;101528.48;;;7.20;36.16
43281;BME280;62175;49.416;8.690;2023-02-28T23:16:52;101531.79;;;7.29;36.32
43281;BME280;62175;49.416;8.690;2023-02-28T23:19:26;101529.60;;;7.36;36.81
43281;BME280;62175;49.416;8.690;2023-02-28T23:22:22;101528.56;;;7.82;36.08
43281;BME280;62175;49.416;8.690;2023-02-28T23:25:09;101531.73;;;7.28;36.01
43281;BME280;62175;49.416;8.690;2023-02-28T23:28:13;101536.37;;;7.66;36.32
43281;BME280;62175;49.416;8.690;2023-02-28T23:30:52;101533.77;;;7.34;36.73
43281;BME280;62175;49.416;8.690;2023-02-28T23:33:41;101538.06;;;7.31;35.92
43281;BME280;62175;49.416;8.690;2023-02-28T23:37:02;101537.93;;;7.55;36.25
43281;BME280;62175;49.416;8.690;2023-02-28T23:39:52;101537.85;;;7.86;35.75
43281;BME280;62175;49.416;8.690;2023-02-28T23:43:30;101542.33;;;7.32;36.03
43281;BME280;62175;49.416;8.690;2023-02-28T23:46:22;101546.67;;;7.27;35.87
43281;BME280;62175;49.416;8.690;2023-02-28T23:48:57;101545.62;;;7.27;35.88
43281;BME280;62175;49.416;8.690;2023-02-28T23:51:54;101540.86;;;7.40;36.48
